sensor_id;sensor_type;location;lat;lon;timestamp;P1;durP1;ratioP1;P2;durP2;ratioP2
70838;SDS011;58464;52.298;4.852;2022-10-14T00:01:47;22.70;;;13.45;;
70838;SDS011;58464;52.298;4.852;2022-10-14T00:04:13;16.30;;;10.98;;
70838;SDS011;58464;52.298;4.852;2022-10-14T00:06:38;15.77;;;11.57;;
70838;SDS011;58464;52.298;4.852;2022-10-14T00:09:05;37.53;;;22.38;;
70838;SDS011;58464;52.298;4.852;2022-10-14T00:11:33;22.30;;;14.90;;
70838;SDS011;58464;52.298;4.852;2022-10-14T00:14:01;27.63;;;16.15;;
70838;SDS011;58464;52.298;4.852;2022-10-14T00:16:30;33.47;;;19.80;;
70838;SDS011;58464;52.298;4.852;2022-10-14T00:18:58;53.38;;;25.80;;
70838;SDS011;58464;52.298;4.852;2022-10-14T00:21:23;20.15;;;12.05;;
70838;SDS011;58464;52.298;4.852;2022-10-14T00:23:49;37.13;;;20.13;;
70838;SDS011;58464;52.298;4.852;2022-10-14T00:26:16;36.85;;;21.40;;
70838;SDS011;58464;52.298;4.852;2022-10-14T00:28:46;32.60;;;19.55;;
70838;SDS011;58464;52.298;4.852;2022-10-14T00:31:12;29.00;;;17.05;;
70838;SDS011;58464;52.298;4.852;2022-10-14T00:33:38;26.10;;;15.93;;
70838;SDS011;58464;52.298;4.852;2022-10-14T00:36:04;27.70;;;15.48;;
70838;SDS011;58464;52.298;4.852;2022-10-14T00:38:30;37.67;;;17.77;;
70838;SDS011;58464;52.298;4.852;2022-10-14T00:40:56;36.33;;;16.73;;
70838;SDS011;58464;52.298;4.852;2022-10-14T00:43:22;65.07;;;26.63;;
70838;SDS011;58464;52.298;4.852;2022-10-14T00:45:49;102.18;;;24.10;;
70838;SDS011;58464;52.298;4.852;2022-10-14T00:48:14;59.75;;;22.80;;
70838;SDS011;58464;52.298;4.852;2022-10-14T00:50:42;65.00;;;19.58;;
70838;SDS011;58464;52.298;4.852;2022-10-14T00:53:09;87.22;;;18.25;;
70838;SDS011;58464;52.298;4.852;2022-10-14T00:55:38;99.25;;;20.10;;
70838;SDS011;58464;52.298;4.852;2022-10-14T00:58:05;85.40;;;19.63;;
70838;SDS011;58464;52.298;4.852;2022-10-14T01:00:31;247.02;;;25.10;;
70838;SDS011;58464;52.298;4.852;2022-10-14T01:02:57;147.63;;;17.35;;
70838;SDS011;58464;52.298;4.852;2022-10-14T01:05:22;123.10;;;18.38;;
70838;SDS011;58464;52.298;4.852;2022-10-14T01:07:58;195.43;;;20.25;;
70838;SDS011;58464;52.298;4.852;2022-10-14T01:10:40;55.92;;;17.52;;
70838;SDS011;58464;52.298;4.852;2022-10-14T01:15:53;99.80;;;21.00;;
70838;SDS011;58464;52.298;4.852;2022-10-14T01:29:37;46.20;;;21.38;;
70838;SDS011;58464;52.298;4.852;2022-10-14T01:34:54;48.42;;;21.40;;
70838;SDS011;58464;52.298;4.852;2022-10-14T01:37:26;47.38;;;20.58;;
70838;SDS011;58464;52.298;4.852;2022-10-14T01:39:54;32.70;;;19.58;;
70838;SDS011;58464;52.298;4.852;2022-10-14T01:42:27;37.83;;;21.10;;
70838;SDS011;58464;52.298;4.852;2022-10-14T01:45:07;34.88;;;20.30;;
70838;SDS011;58464;52.298;4.852;2022-10-14T01:47:37;31.35;;;19.48;;
70838;SDS011;58464;52.298;4.852;2022-10-14T01:50:08;28.92;;;18.67;;
70838;SDS011;58464;52.298;4.852;2022-10-14T01:52:38;31.30;;;20.15;;
70838;SDS011;58464;52.298;4.852;2022-10-14T01:55:10;32.67;;;20.30;;
70838;SDS011;58464;52.298;4.852;2022-10-14T01:57:40;27.77;;;18.95;;
70838;SDS011;58464;52.298;4.852;2022-10-14T02:00:08;27.45;;;18.45;;
70838;SDS011;58464;52.298;4.852;2022-10-14T02:02:35;33.65;;;20.30;;
70838;SDS011;58464;52.298;4.852;2022-10-14T02:05:05;26.80;;;18.27;;
70838;SDS011;58464;52.298;4.852;2022-10-14T02:07:41;27.33;;;18.90;;
70838;SDS011;58464;52.298;4.852;2022-10-14T02:10:13;35.03;;;20.38;;
70838;SDS011;58464;52.298;4.852;2022-10-14T02:16:11;33.97;;;21.30;;
70838;SDS011;58464;52.298;4.852;2022-10-14T02:18:47;31.20;;;21.20;;
70838;SDS011;58464;52.298;4.852;2022-10-14T02:24:00;34.78;;;22.38;;
70838;SDS011;58464;52.298;4.852;2022-10-14T02:26:34;33.58;;;22.55;;
70838;SDS011;58464;52.298;4.852;2022-10-14T02:29:01;37.20;;;20.83;;
70838;SDS011;58464;52.298;4.852;2022-10-14T02:31:29;35.13;;;21.88;;
70838;SDS011;58464;52.298;4.852;2022-10-14T02:33:57;35.25;;;22.33;;
70838;SDS011;58464;52.298;4.852;2022-10-14T02:36:26;29.90;;;19.77;;
70838;SDS011;58464;52.298;4.852;2022-10-14T02:38:54;32.53;;;21.35;;
70838;SDS011;58464;52.298;4.852;2022-10-14T02:41:23;35.03;;;21.85;;
70838;SDS011;58464;52.298;4.852;2022-10-14T02:43:51;34.42;;;22.98;;
70838;SDS011;58464;52.298;4.852;2022-10-14T02:46:21;37.05;;;23.00;;
70838;SDS011;58464;52.298;4.852;2022-10-14T02:48:47;37.45;;;22.65;;
70838;SDS011;58464;52.298;4.852;2022-10-14T02:51:13;34.78;;;22.00;;
70838;SDS011;58464;52.298;4.852;2022-10-14T02:53:39;32.10;;;21.02;;
70838;SDS011;58464;52.298;4.852;2022-10-14T02:56:05;35.17;;;22.83;;
70838;SDS011;58464;52.298;4.852;2022-10-14T02:58:31;35.60;;;22.02;;
70838;SDS011;58464;52.298;4.852;2022-10-14T03:00:57;32.90;;;22.02;;
70838;SDS011;58464;52.298;4.852;2022-10-14T03:03:22;39.30;;;23.45;;
70838;SDS011;58464;52.298;4.852;2022-10-14T03:05:47;41.92;;;22.92;;
70838;SDS011;58464;52.298;4.852;2022-10-14T03:08:13;40.38;;;24.75;;
70838;SDS011;58464;52.298;4.852;2022-10-14T03:10:38;39.97;;;24.67;;
70838;SDS011;58464;52.298;4.852;2022-10-14T03:13:04;39.35;;;24.13;;
70838;SDS011;58464;52.298;4.852;2022-10-14T03:15:29;37.92;;;25.65;;
70838;SDS011;58464;52.298;4.852;2022-10-14T03:17:54;41.22;;;26.65;;
70838;SDS011;58464;52.298;4.852;2022-10-14T03:20:20;43.00;;;26.60;;
70838;SDS011;58464;52.298;4.852;2022-10-14T03:22:45;44.75;;;26.95;;
70838;SDS011;58464;52.298;4.852;2022-10-14T03:25:10;49.70;;;30.35;;
70838;SDS011;58464;52.298;4.852;2022-10-14T03:27:36;57.97;;;35.20;;
70838;SDS011;58464;52.298;4.852;2022-10-14T03:30:02;64.03;;;36.55;;
70838;SDS011;58464;52.298;4.852;2022-10-14T03:32:27;66.28;;;36.83;;
70838;SDS011;58464;52.298;4.852;2022-10-14T03:34:53;65.82;;;37.22;;
70838;SDS011;58464;52.298;4.852;2022-10-14T03:37:18;59.40;;;34.13;;
70838;SDS011;58464;52.298;4.852;2022-10-14T03:39:43;58.72;;;33.28;;
70838;SDS011;58464;52.298;4.852;2022-10-14T03:42:09;55.03;;;33.03;;
70838;SDS011;58464;52.298;4.852;2022-10-14T03:44:34;52.03;;;30.13;;
70838;SDS011;58464;52.298;4.852;2022-10-14T03:47:01;49.50;;;29.77;;
70838;SDS011;58464;52.298;4.852;2022-10-14T03:49:26;48.28;;;29.33;;
70838;SDS011;58464;52.298;4.852;2022-10-14T03:51:51;46.85;;;28.13;;
70838;SDS011;58464;52.298;4.852;2022-10-14T03:54:17;45.97;;;26.33;;
70838;SDS011;58464;52.298;4.852;2022-10-14T03:56:42;46.50;;;26.60;;
70838;SDS011;58464;52.298;4.852;2022-10-14T03:59:08;43.90;;;27.17;;
70838;SDS011;58464;52.298;4.852;2022-10-14T04:01:33;46.72;;;25.10;;
70838;SDS011;58464;52.298;4.852;2022-10-14T04:03:58;47.90;;;25.73;;
70838;SDS011;58464;52.298;4.852;2022-10-14T04:06:24;39.40;;;25.23;;
70838;SDS011;58464;52.298;4.852;2022-10-14T04:08:49;42.25;;;25.23;;
70838;SDS011;58464;52.298;4.852;2022-10-14T04:11:14;42.03;;;24.23;;
70838;SDS011;58464;52.298;4.852;2022-10-14T04:13:41;42.00;;;25.42;;
70838;SDS011;58464;52.298;4.852;2022-10-14T04:16:07;40.50;;;23.90;;
70838;SDS011;58464;52.298;4.852;2022-10-14T04:18:34;40.53;;;24.40;;
70838;SDS011;58464;52.298;4.852;2022-10-14T04:21:03;41.33;;;25.75;;
70838;SDS011;58464;52.298;4.852;2022-10-14T04:23:31;42.28;;;25.40;;
70838;SDS011;58464;52.298;4.852;2022-10-14T04:25:57;42.45;;;25.17;;
70838;SDS011;58464;52.298;4.852;2022-10-14T04:28:22;46.45;;;25.27;;
70838;SDS011;58464;52.298;4.852;2022-10-14T04:30:47;44.08;;;24.17;;
70838;SDS011;58464;52.298;4.852;2022-10-14T04:33:13;42.85;;;24.35;;
70838;SDS011;58464;52.298;4.852;2022-10-14T04:35:38;46.85;;;25.90;;
70838;SDS011;58464;52.298;4.852;2022-10-14T04:38:03;43.80;;;24.55;;
70838;SDS011;58464;52.298;4.852;2022-10-14T04:40:29;40.13;;;23.83;;
70838;SDS011;58464;52.298;4.852;2022-10-14T04:42:57;42.70;;;23.95;;
70838;SDS011;58464;52.298;4.852;2022-10-14T04:45:23;41.22;;;24.08;;
70838;SDS011;58464;52.298;4.852;2022-10-14T04:47:49;46.35;;;26.08;;
70838;SDS011;58464;52.298;4.852;2022-10-14T04:50:15;43.50;;;24.50;;
70838;SDS011;58464;52.298;4.852;2022-10-14T04:52:41;51.47;;;25.80;;
70838;SDS011;58464;52.298;4.852;2022-10-14T04:55:06;46.22;;;24.88;;
70838;SDS011;58464;52.298;4.852;2022-10-14T04:57:32;47.42;;;25.00;;
70838;SDS011;58464;52.298;4.852;2022-10-14T04:59:57;50.35;;;25.58;;
70838;SDS011;58464;52.298;4.852;2022-10-14T05:02:23;46.63;;;25.95;;
70838;SDS011;58464;52.298;4.852;2022-10-14T05:04:48;45.55;;;24.42;;
70838;SDS011;58464;52.298;4.852;2022-10-14T05:07:13;51.28;;;26.52;;
70838;SDS011;58464;52.298;4.852;2022-10-14T05:09:39;48.13;;;24.70;;
70838;SDS011;58464;52.298;4.852;2022-10-14T05:12:04;50.42;;;24.38;;
70838;SDS011;58464;52.298;4.852;2022-10-14T05:14:30;46.60;;;24.02;;
70838;SDS011;58464;52.298;4.852;2022-10-14T05:16:55;50.55;;;23.23;;
70838;SDS011;58464;52.298;4.852;2022-10-14T05:19:20;46.80;;;24.60;;
70838;SDS011;58464;52.298;4.852;2022-10-14T05:21:46;45.20;;;23.75;;
70838;SDS011;58464;52.298;4.852;2022-10-14T05:24:11;51.83;;;25.33;;
70838;SDS011;58464;52.298;4.852;2022-10-14T05:26:37;44.17;;;23.20;;
70838;SDS011;58464;52.298;4.852;2022-10-14T05:29:02;53.13;;;24.42;;
70838;SDS011;58464;52.298;4.852;2022-10-14T05:31:28;46.42;;;24.73;;
70838;SDS011;58464;52.298;4.852;2022-10-14T05:33:54;48.33;;;24.38;;
70838;SDS011;58464;52.298;4.852;2022-10-14T05:36:19;46.63;;;24.65;;
70838;SDS011;58464;52.298;4.852;2022-10-14T05:38:44;46.08;;;24.65;;
70838;SDS011;58464;52.298;4.852;2022-10-14T05:41:10;56.55;;;25.13;;
70838;SDS011;58464;52.298;4.852;2022-10-14T05:43:36;53.67;;;25.65;;
70838;SDS011;58464;52.298;4.852;2022-10-14T05:46:02;55.55;;;26.25;;
70838;SDS011;58464;52.298;4.852;2022-10-14T05:48:27;61.75;;;26.35;;
70838;SDS011;58464;52.298;4.852;2022-10-14T05:50:52;53.95;;;26.65;;
70838;SDS011;58464;52.298;4.852;2022-10-14T05:53:18;48.17;;;24.65;;
70838;SDS011;58464;52.298;4.852;2022-10-14T05:55:43;52.05;;;24.05;;
70838;SDS011;58464;52.298;4.852;2022-10-14T05:58:09;52.20;;;24.63;;
70838;SDS011;58464;52.298;4.852;2022-10-14T06:00:34;47.97;;;23.63;;
70838;SDS011;58464;52.298;4.852;2022-10-14T06:03:00;42.83;;;22.30;;
70838;SDS011;58464;52.298;4.852;2022-10-14T06:05:25;40.10;;;21.40;;
70838;SDS011;58464;52.298;4.852;2022-10-14T06:07:51;35.95;;;19.80;;
70838;SDS011;58464;52.298;4.852;2022-10-14T06:10:16;37.05;;;20.58;;
70838;SDS011;58464;52.298;4.852;2022-10-14T06:12:42;38.70;;;21.15;;
70838;SDS011;58464;52.298;4.852;2022-10-14T06:15:07;36.30;;;20.55;;
70838;SDS011;58464;52.298;4.852;2022-10-14T06:17:33;33.38;;;19.42;;
70838;SDS011;58464;52.298;4.852;2022-10-14T06:19:58;35.42;;;18.98;;
70838;SDS011;58464;52.298;4.852;2022-10-14T06:22:23;25.92;;;16.75;;
70838;SDS011;58464;52.298;4.852;2022-10-14T06:24:49;28.25;;;16.88;;
70838;SDS011;58464;52.298;4.852;2022-10-14T06:27:14;25.20;;;15.73;;
70838;SDS011;58464;52.298;4.852;2022-10-14T06:29:39;26.70;;;15.55;;
70838;SDS011;58464;52.298;4.852;2022-10-14T06:32:05;24.35;;;15.32;;
70838;SDS011;58464;52.298;4.852;2022-10-14T06:34:32;25.30;;;14.25;;
70838;SDS011;58464;52.298;4.852;2022-10-14T06:36:58;20.65;;;12.88;;
70838;SDS011;58464;52.298;4.852;2022-10-14T06:39:24;23.48;;;11.75;;
70838;SDS011;58464;52.298;4.852;2022-10-14T06:41:49;23.02;;;11.57;;
70838;SDS011;58464;52.298;4.852;2022-10-14T06:44:14;19.65;;;11.32;;
70838;SDS011;58464;52.298;4.852;2022-10-14T06:46:40;16.13;;;9.68;;
70838;SDS011;58464;52.298;4.852;2022-10-14T06:49:06;15.55;;;9.75;;
70838;SDS011;58464;52.298;4.852;2022-10-14T06:51:32;13.50;;;8.88;;
70838;SDS011;58464;52.298;4.852;2022-10-14T06:53:57;18.23;;;10.45;;
70838;SDS011;58464;52.298;4.852;2022-10-14T06:56:22;18.05;;;9.63;;
70838;SDS011;58464;52.298;4.852;2022-10-14T06:58:51;13.57;;;9.23;;
70838;SDS011;58464;52.298;4.852;2022-10-14T07:01:17;22.02;;;9.60;;
70838;SDS011;58464;52.298;4.852;2022-10-14T07:03:43;13.60;;;8.80;;
70838;SDS011;58464;52.298;4.852;2022-10-14T07:06:08;16.10;;;9.63;;
70838;SDS011;58464;52.298;4.852;2022-10-14T07:08:34;13.57;;;9.10;;
70838;SDS011;58464;52.298;4.852;2022-10-14T07:10:59;12.75;;;8.52;;
70838;SDS011;58464;52.298;4.852;2022-10-14T07:13:25;13.40;;;8.35;;
70838;SDS011;58464;52.298;4.852;2022-10-14T07:15:50;12.05;;;8.27;;
70838;SDS011;58464;52.298;4.852;2022-10-14T07:18:16;19.90;;;9.77;;
70838;SDS011;58464;52.298;4.852;2022-10-14T07:20:42;15.07;;;9.38;;
70838;SDS011;58464;52.298;4.852;2022-10-14T07:23:08;14.43;;;8.75;;
70838;SDS011;58464;52.298;4.852;2022-10-14T07:25:33;11.90;;;8.80;;
70838;SDS011;58464;52.298;4.852;2022-10-14T07:27:59;11.90;;;8.55;;
70838;SDS011;58464;52.298;4.852;2022-10-14T07:30:24;16.75;;;8.75;;
70838;SDS011;58464;52.298;4.852;2022-10-14T07:32:50;16.17;;;8.05;;
70838;SDS011;58464;52.298;4.852;2022-10-14T07:35:16;12.98;;;8.18;;
70838;SDS011;58464;52.298;4.852;2022-10-14T07:37:43;14.20;;;8.48;;
70838;SDS011;58464;52.298;4.852;2022-10-14T07:40:08;13.23;;;8.32;;
70838;SDS011;58464;52.298;4.852;2022-10-14T07:42:34;12.18;;;8.23;;
70838;SDS011;58464;52.298;4.852;2022-10-14T07:45:00;12.88;;;8.45;;
70838;SDS011;58464;52.298;4.852;2022-10-14T07:47:25;13.40;;;8.95;;
70838;SDS011;58464;52.298;4.852;2022-10-14T07:49:52;14.70;;;9.10;;
70838;SDS011;58464;52.298;4.852;2022-10-14T07:52:17;14.32;;;8.82;;
70838;SDS011;58464;52.298;4.852;2022-10-14T07:54:43;11.68;;;7.97;;
70838;SDS011;58464;52.298;4.852;2022-10-14T07:57:09;12.15;;;8.75;;
70838;SDS011;58464;52.298;4.852;2022-10-14T07:59:35;16.70;;;9.95;;
70838;SDS011;58464;52.298;4.852;2022-10-14T08:02:01;11.15;;;7.97;;
70838;SDS011;58464;52.298;4.852;2022-10-14T08:04:28;12.30;;;8.45;;
70838;SDS011;58464;52.298;4.852;2022-10-14T08:06:53;15.38;;;9.00;;
70838;SDS011;58464;52.298;4.852;2022-10-14T08:09:18;14.85;;;8.60;;
70838;SDS011;58464;52.298;4.852;2022-10-14T08:11:44;12.60;;;8.50;;
70838;SDS011;58464;52.298;4.852;2022-10-14T08:14:10;13.38;;;8.80;;
70838;SDS011;58464;52.298;4.852;2022-10-14T08:16:37;15.30;;;8.55;;
70838;SDS011;58464;52.298;4.852;2022-10-14T08:19:04;11.40;;;8.55;;
70838;SDS011;58464;52.298;4.852;2022-10-14T08:21:31;13.20;;;9.77;;
70838;SDS011;58464;52.298;4.852;2022-10-14T08:23:57;13.00;;;9.27;;
70838;SDS011;58464;52.298;4.852;2022-10-14T08:26:25;13.00;;;9.55;;
70838;SDS011;58464;52.298;4.852;2022-10-14T08:29:00;16.15;;;10.10;;
70838;SDS011;58464;52.298;4.852;2022-10-14T08:31:27;14.25;;;9.60;;
70838;SDS011;58464;52.298;4.852;2022-10-14T08:33:53;21.60;;;10.27;;
70838;SDS011;58464;52.298;4.852;2022-10-14T08:36:19;15.55;;;9.63;;
70838;SDS011;58464;52.298;4.852;2022-10-14T08:38:45;24.50;;;10.80;;
70838;SDS011;58464;52.298;4.852;2022-10-14T08:49:22;26.10;;;13.18;;
70838;SDS011;58464;52.298;4.852;2022-10-14T08:51:51;20.02;;;12.38;;
70838;SDS011;58464;52.298;4.852;2022-10-14T08:54:33;18.42;;;11.68;;
70838;SDS011;58464;52.298;4.852;2022-10-14T08:57:05;21.27;;;12.68;;
70838;SDS011;58464;52.298;4.852;2022-10-14T08:59:39;21.17;;;12.93;;
70838;SDS011;58464;52.298;4.852;2022-10-14T09:05:00;23.42;;;14.05;;
70838;SDS011;58464;52.298;4.852;2022-10-14T09:07:27;26.20;;;13.85;;
70838;SDS011;58464;52.298;4.852;2022-10-14T09:09:59;22.83;;;13.45;;
70838;SDS011;58464;52.298;4.852;2022-10-14T09:12:30;32.28;;;15.93;;
70838;SDS011;58464;52.298;4.852;2022-10-14T09:15:07;28.85;;;16.27;;
70838;SDS011;58464;52.298;4.852;2022-10-14T09:17:50;27.17;;;15.85;;
70838;SDS011;58464;52.298;4.852;2022-10-14T09:20:37;36.20;;;15.80;;
70838;SDS011;58464;52.298;4.852;2022-10-14T09:23:15;36.17;;;16.95;;
70838;SDS011;58464;52.298;4.852;2022-10-14T09:25:50;32.85;;;16.92;;
70838;SDS011;58464;52.298;4.852;2022-10-14T09:28:21;32.30;;;16.88;;
70838;SDS011;58464;52.298;4.852;2022-10-14T09:30:51;32.72;;;17.73;;
70838;SDS011;58464;52.298;4.852;2022-10-14T09:33:17;40.42;;;19.67;;
70838;SDS011;58464;52.298;4.852;2022-10-14T09:35:44;28.90;;;17.48;;
70838;SDS011;58464;52.298;4.852;2022-10-14T09:38:11;30.83;;;17.17;;
70838;SDS011;58464;52.298;4.852;2022-10-14T09:40:45;29.95;;;16.42;;
70838;SDS011;58464;52.298;4.852;2022-10-14T09:43:17;30.73;;;15.88;;
70838;SDS011;58464;52.298;4.852;2022-10-14T09:48:36;27.10;;;16.05;;
70838;SDS011;58464;52.298;4.852;2022-10-14T09:51:47;26.85;;;15.45;;
70838;SDS011;58464;52.298;4.852;2022-10-14T09:53:56;25.23;;;14.65;;
70838;SDS011;58464;52.298;4.852;2022-10-14T09:56:30;26.52;;;14.35;;
70838;SDS011;58464;52.298;4.852;2022-10-14T09:58:58;26.25;;;14.05;;
70838;SDS011;58464;52.298;4.852;2022-10-14T10:01:26;22.05;;;13.15;;
70838;SDS011;58464;52.298;4.852;2022-10-14T10:03:53;22.80;;;11.38;;
70838;SDS011;58464;52.298;4.852;2022-10-14T10:06:21;16.35;;;9.93;;
70838;SDS011;58464;52.298;4.852;2022-10-14T10:11:25;15.90;;;10.00;;
70838;SDS011;58464;52.298;4.852;2022-10-14T10:13:57;16.75;;;9.77;;
70838;SDS011;58464;52.298;4.852;2022-10-14T10:16:24;18.15;;;10.45;;
70838;SDS011;58464;52.298;4.852;2022-10-14T10:18:51;15.10;;;9.30;;
70838;SDS011;58464;52.298;4.852;2022-10-14T10:21:26;15.88;;;9.70;;
70838;SDS011;58464;52.298;4.852;2022-10-14T10:23:57;16.50;;;8.15;;
70838;SDS011;58464;52.298;4.852;2022-10-14T10:26:31;18.63;;;10.00;;
70838;SDS011;58464;52.298;4.852;2022-10-14T10:29:02;14.02;;;9.52;;
70838;SDS011;58464;52.298;4.852;2022-10-14T10:31:53;16.13;;;10.05;;
70838;SDS011;58464;52.298;4.852;2022-10-14T10:42:34;18.38;;;12.93;;
70838;SDS011;58464;52.298;4.852;2022-10-14T10:45:32;17.98;;;11.60;;
70838;SDS011;58464;52.298;4.852;2022-10-14T10:50:59;21.40;;;13.32;;
70838;SDS011;58464;52.298;4.852;2022-10-14T10:56:42;20.55;;;13.23;;
70838;SDS011;58464;52.298;4.852;2022-10-14T11:10:37;18.58;;;11.70;;
70838;SDS011;58464;52.298;4.852;2022-10-14T11:24:03;12.30;;;9.68;;
70838;SDS011;58464;52.298;4.852;2022-10-14T11:32:30;12.98;;;9.50;;
70838;SDS011;58464;52.298;4.852;2022-10-14T11:34:42;13.63;;;9.18;;
70838;SDS011;58464;52.298;4.852;2022-10-14T11:40:13;12.38;;;9.10;;
70838;SDS011;58464;52.298;4.852;2022-10-14T11:43:13;11.13;;;8.90;;
70838;SDS011;58464;52.298;4.852;2022-10-14T11:46:15;10.90;;;8.10;;
70838;SDS011;58464;52.298;4.852;2022-10-14T11:48:50;13.98;;;9.57;;
70838;SDS011;58464;52.298;4.852;2022-10-14T11:51:39;10.30;;;8.95;;
70838;SDS011;58464;52.298;4.852;2022-10-14T11:59:28;11.95;;;9.07;;
70838;SDS011;58464;52.298;4.852;2022-10-14T12:02:07;12.40;;;8.57;;
70838;SDS011;58464;52.298;4.852;2022-10-14T12:04:37;10.32;;;9.02;;
70838;SDS011;58464;52.298;4.852;2022-10-14T12:07:10;12.98;;;10.00;;
70838;SDS011;58464;52.298;4.852;2022-10-14T12:09:43;13.05;;;10.18;;
70838;SDS011;58464;52.298;4.852;2022-10-14T12:12:14;10.82;;;8.10;;
70838;SDS011;58464;52.298;4.852;2022-10-14T12:14:54;9.68;;;8.63;;
70838;SDS011;58464;52.298;4.852;2022-10-14T12:19:49;8.82;;;7.88;;
70838;SDS011;58464;52.298;4.852;2022-10-14T12:24:52;11.90;;;9.10;;
70838;SDS011;58464;52.298;4.852;2022-10-14T12:27:20;9.63;;;7.82;;
70838;SDS011;58464;52.298;4.852;2022-10-14T12:29:48;11.15;;;8.55;;
70838;SDS011;58464;52.298;4.852;2022-10-14T12:34:41;10.63;;;8.57;;
70838;SDS011;58464;52.298;4.852;2022-10-14T12:39:48;8.07;;;7.30;;
70838;SDS011;58464;52.298;4.852;2022-10-14T12:42:17;11.40;;;7.35;;
70838;SDS011;58464;52.298;4.852;2022-10-14T12:44:48;7.97;;;6.97;;
70838;SDS011;58464;52.298;4.852;2022-10-14T12:47:20;9.30;;;7.10;;
70838;SDS011;58464;52.298;4.852;2022-10-14T12:49:53;16.58;;;7.22;;
70838;SDS011;58464;52.298;4.852;2022-10-14T12:52:22;10.07;;;6.57;;
70838;SDS011;58464;52.298;4.852;2022-10-14T12:54:52;8.50;;;6.78;;
70838;SDS011;58464;52.298;4.852;2022-10-14T12:57:25;10.60;;;6.68;;
70838;SDS011;58464;52.298;4.852;2022-10-14T12:59:51;9.07;;;6.35;;
70838;SDS011;58464;52.298;4.852;2022-10-14T13:05:09;14.73;;;7.22;;
70838;SDS011;58464;52.298;4.852;2022-10-14T13:16:02;7.50;;;3.88;;
70838;SDS011;58464;52.298;4.852;2022-10-14T13:21:07;5.75;;;3.38;;
70838;SDS011;58464;52.298;4.852;2022-10-14T13:23:38;6.82;;;3.80;;
70838;SDS011;58464;52.298;4.852;2022-10-14T13:31:59;6.55;;;2.80;;
70838;SDS011;58464;52.298;4.852;2022-10-14T13:37:39;4.57;;;1.92;;
70838;SDS011;58464;52.298;4.852;2022-10-14T13:42:59;3.22;;;1.73;;
70838;SDS011;58464;52.298;4.852;2022-10-14T13:46:03;4.18;;;2.10;;
70838;SDS011;58464;52.298;4.852;2022-10-14T13:48:29;6.73;;;2.63;;
70838;SDS011;58464;52.298;4.852;2022-10-14T13:53:52;2.47;;;1.70;;
70838;SDS011;58464;52.298;4.852;2022-10-14T13:56:23;4.55;;;2.20;;
70838;SDS011;58464;52.298;4.852;2022-10-14T13:58:54;6.18;;;1.33;;
70838;SDS011;58464;52.298;4.852;2022-10-14T14:01:21;2.97;;;1.42;;
70838;SDS011;58464;52.298;4.852;2022-10-14T14:03:50;3.20;;;1.20;;
70838;SDS011;58464;52.298;4.852;2022-10-14T14:06:18;4.18;;;2.00;;
70838;SDS011;58464;52.298;4.852;2022-10-14T14:09:04;5.60;;;1.70;;
70838;SDS011;58464;52.298;4.852;2022-10-14T14:11:30;3.42;;;1.85;;
70838;SDS011;58464;52.298;4.852;2022-10-14T14:14:01;3.17;;;1.10;;
70838;SDS011;58464;52.298;4.852;2022-10-14T14:16:50;4.20;;;1.52;;
70838;SDS011;58464;52.298;4.852;2022-10-14T14:19:20;2.88;;;1.35;;
70838;SDS011;58464;52.298;4.852;2022-10-14T14:22:03;8.50;;;1.83;;
70838;SDS011;58464;52.298;4.852;2022-10-14T14:24:51;5.97;;;2.20;;
70838;SDS011;58464;52.298;4.852;2022-10-14T14:27:19;4.25;;;2.15;;
70838;SDS011;58464;52.298;4.852;2022-10-14T14:29:50;4.68;;;2.00;;
70838;SDS011;58464;52.298;4.852;2022-10-14T14:32:22;4.47;;;2.75;;
70838;SDS011;58464;52.298;4.852;2022-10-14T14:34:53;10.65;;;2.90;;
70838;SDS011;58464;52.298;4.852;2022-10-14T14:37:25;4.07;;;1.95;;
70838;SDS011;58464;52.298;4.852;2022-10-14T14:40:00;5.35;;;2.78;;
70838;SDS011;58464;52.298;4.852;2022-10-14T14:42:27;5.03;;;2.17;;
70838;SDS011;58464;52.298;4.852;2022-10-14T14:44:57;6.55;;;3.05;;
70838;SDS011;58464;52.298;4.852;2022-10-14T14:47:26;6.78;;;2.28;;
70838;SDS011;58464;52.298;4.852;2022-10-14T14:49:54;6.63;;;2.72;;
70838;SDS011;58464;52.298;4.852;2022-10-14T14:52:21;4.80;;;2.58;;
70838;SDS011;58464;52.298;4.852;2022-10-14T14:54:47;4.95;;;2.85;;
70838;SDS011;58464;52.298;4.852;2022-10-14T14:57:14;8.48;;;2.40;;
70838;SDS011;58464;52.298;4.852;2022-10-14T14:59:49;8.50;;;3.20;;
70838;SDS011;58464;52.298;4.852;2022-10-14T15:02:23;6.25;;;2.55;;
70838;SDS011;58464;52.298;4.852;2022-10-14T15:05:03;5.20;;;2.67;;
70838;SDS011;58464;52.298;4.852;2022-10-14T15:07:30;5.35;;;2.22;;
70838;SDS011;58464;52.298;4.852;2022-10-14T15:09:56;7.07;;;2.53;;
70838;SDS011;58464;52.298;4.852;2022-10-14T15:14:59;5.78;;;2.08;;
70838;SDS011;58464;52.298;4.852;2022-10-14T15:17:33;8.02;;;2.25;;
70838;SDS011;58464;52.298;4.852;2022-10-14T15:22:35;4.07;;;2.22;;
70838;SDS011;58464;52.298;4.852;2022-10-14T15:30:21;8.68;;;2.25;;
70838;SDS011;58464;52.298;4.852;2022-10-14T15:33:12;7.07;;;2.63;;
70838;SDS011;58464;52.298;4.852;2022-10-14T15:35:38;7.05;;;2.20;;
70838;SDS011;58464;52.298;4.852;2022-10-14T15:38:38;8.15;;;2.55;;
70838;SDS011;58464;52.298;4.852;2022-10-14T15:40:56;6.88;;;3.67;;
70838;SDS011;58464;52.298;4.852;2022-10-14T15:43:22;6.70;;;2.65;;
70838;SDS011;58464;52.298;4.852;2022-10-14T15:45:53;7.10;;;2.92;;
70838;SDS011;58464;52.298;4.852;2022-10-14T15:48:39;8.35;;;3.05;;
70838;SDS011;58464;52.298;4.852;2022-10-14T15:51:14;10.45;;;2.47;;
70838;SDS011;58464;52.298;4.852;2022-10-14T15:53:41;7.85;;;2.90;;
70838;SDS011;58464;52.298;4.852;2022-10-14T15:56:06;5.65;;;2.58;;
70838;SDS011;58464;52.298;4.852;2022-10-14T15:58:34;10.02;;;4.00;;
70838;SDS011;58464;52.298;4.852;2022-10-14T16:01:00;15.98;;;6.35;;
70838;SDS011;58464;52.298;4.852;2022-10-14T16:03:27;10.02;;;5.05;;
70838;SDS011;58464;52.298;4.852;2022-10-14T16:05:52;9.52;;;5.85;;
70838;SDS011;58464;52.298;4.852;2022-10-14T16:08:17;15.18;;;7.07;;
70838;SDS011;58464;52.298;4.852;2022-10-14T16:10:43;12.30;;;4.63;;
70838;SDS011;58464;52.298;4.852;2022-10-14T16:13:10;7.95;;;4.22;;
70838;SDS011;58464;52.298;4.852;2022-10-14T16:18:16;14.00;;;5.72;;
70838;SDS011;58464;52.298;4.852;2022-10-14T16:20:47;13.90;;;5.97;;
70838;SDS011;58464;52.298;4.852;2022-10-14T16:23:13;22.58;;;7.78;;
70838;SDS011;58464;52.298;4.852;2022-10-14T16:25:43;12.75;;;5.75;;
70838;SDS011;58464;52.298;4.852;2022-10-14T16:28:11;16.02;;;6.00;;
70838;SDS011;58464;52.298;4.852;2022-10-14T16:30:38;10.15;;;5.45;;
70838;SDS011;58464;52.298;4.852;2022-10-14T16:33:05;14.35;;;6.07;;
70838;SDS011;58464;52.298;4.852;2022-10-14T16:35:31;11.77;;;5.90;;
70838;SDS011;58464;52.298;4.852;2022-10-14T16:37:57;13.45;;;6.22;;
70838;SDS011;58464;52.298;4.852;2022-10-14T16:40:23;11.38;;;7.15;;
70838;SDS011;58464;52.298;4.852;2022-10-14T16:42:49;15.23;;;5.93;;
70838;SDS011;58464;52.298;4.852;2022-10-14T16:45:15;21.67;;;8.70;;
70838;SDS011;58464;52.298;4.852;2022-10-14T16:47:40;20.08;;;8.88;;
70838;SDS011;58464;52.298;4.852;2022-10-14T16:50:07;16.70;;;7.18;;
70838;SDS011;58464;52.298;4.852;2022-10-14T16:52:33;16.45;;;6.90;;
70838;SDS011;58464;52.298;4.852;2022-10-14T16:55:19;13.73;;;7.47;;
70838;SDS011;58464;52.298;4.852;2022-10-14T16:57:46;17.15;;;8.60;;
70838;SDS011;58464;52.298;4.852;2022-10-14T17:00:13;19.08;;;10.18;;